Time;durP1;ratioP1;P1;durP2;ratioP2;P2;SDS_P1;SDS_P2;PMS_P1;PMS_P2;Temp;Humidity;BMP_temperature;BMP_pressure;BME280_temperature;BME280_humidity;BME280_pressure;Samples;Min_cycle;Max_cycle;Signal;HPM_P1;HPM_P2
2022/10/08 00:01:20;;;;;;;11.43;10.43;;;15.60;40.80;;;;;;10518791;28;20241;-73
2022/10/08 00:06:25;;;;;;;12.47;11.37;;;15.60;41.30;;;;;;10516990;28;20235;-73
2022/10/08 00:11:30;;;;;;;13.20;11.80;;;15.50;41.20;;;;;;10520145;28;20246;-73
2022/10/08 00:16:37;;;;;;;12.40;11.30;;;15.40;41.20;;;;;;10521322;28;20240;-73
2022/10/08 00:21:42;;;;;;;11.20;10.20;;;15.40;41.70;;;;;;10524293;28;20234;-76
2022/10/08 00:26:46;;;;;;;11.80;10.80;;;15.40;41.50;;;;;;10525806;28;20281;-74
2022/10/08 00:31:51;;;;;;;10.73;9.83;;;15.30;41.30;;;;;;10526515;28;20228;-74
2022/10/08 00:42:12;;;;;;;11.40;10.40;;;15.30;41.20;;;;;;2994643;26;20269;-74
2022/10/08 00:47:20;;;;;;;11.03;10.13;;;15.30;41.40;;;;;;10506331;28;20246;-74
2022/10/08 00:52:27;;;;;;;11.87;10.67;;;15.30;41.60;;;;;;10535629;28;20590;-73
2022/10/08 00:57:30;;;;;;;12.67;11.47;;;15.30;41.80;;;;;;10534959;28;20243;-73
2022/10/08 01:02:34;;;;;;;12.57;11.10;;;15.20;41.40;;;;;;10535136;28;20231;-74
2022/10/08 01:07:46;;;;;;;11.23;10.13;;;15.20;41.80;;;;;;10534509;28;20247;-74
2022/10/08 01:13:02;;;;;;;12.70;11.47;;;15.20;42.20;;;;;;10533959;28;20231;-74
2022/10/08 01:18:15;;;;;;;11.30;10.23;;;15.20;42.60;;;;;;10534048;28;20234;-74
2022/10/08 01:23:36;;;;;;;12.00;10.93;;;15.20;42.50;;;;;;10534298;28;20231;-74
2022/10/08 01:28:45;;;;;;;10.10;9.20;;;15.20;42.80;;;;;;10533513;28;20699;-74
2022/10/08 01:33:55;;;;;;;11.37;10.27;;;15.10;42.40;;;;;;10533677;28;20292;-74
2022/10/08 01:39:01;;;;;;;10.23;9.33;;;15.20;42.50;;;;;;10533452;28;20251;-74
2022/10/08 01:44:12;;;;;;;11.37;10.37;;;15.20;42.20;;;;;;10532833;28;20628;-74
2022/10/08 01:49:20;;;;;;;11.03;10.03;;;15.20;42.60;;;;;;10533236;28;20784;-74
2022/10/08 01:54:26;;;;;;;11.63;10.63;;;15.20;42.40;;;;;;10532848;28;20228;-73
2022/10/08 01:59:35;;;;;;;12.03;11.03;;;15.10;42.20;;;;;;10532578;28;20239;-73
2022/10/08 02:04:39;;;;;;;11.50;10.40;;;15.10;42.50;;;;;;10532571;28;20227;-73
2022/10/08 02:09:43;;;;;;;11.43;10.43;;;15.10;41.90;;;;;;10532303;28;20289;-74
2022/10/08 02:14:50;;;;;;;12.50;10.50;;;15.10;42.80;;;;;;10531933;28;20254;-73
2022/10/08 02:19:57;;;;;;;11.57;10.53;;;15.10;42.40;;;;;;10531810;28;20232;-73
2022/10/08 02:25:06;;;;;;;12.37;11.03;;;15.10;42.20;;;;;;10531548;28;20236;-73
2022/10/08 02:30:12;;;;;;;12.40;11.40;;;15.00;42.30;;;;;;10531316;28;20246;-73
2022/10/08 02:35:21;;;;;;;13.17;11.87;;;15.10;42.80;;;;;;10531198;28;20240;-73
2022/10/08 02:40:26;;;;;;;13.20;11.93;;;15.00;42.80;;;;;;10530724;28;20599;-73
2022/10/08 02:45:34;;;;;;;12.53;11.43;;;15.00;42.80;;;;;;10530803;28;20224;-72
2022/10/08 02:50:41;;;;;;;11.83;10.87;;;15.10;43.10;;;;;;10530608;28;20227;-72
2022/10/08 02:55:50;;;;;;;12.53;11.43;;;15.00;43.10;;;;;;10531007;28;20232;-73
2022/10/08 03:00:59;;;;;;;11.90;10.70;;;15.10;43.30;;;;;;10530509;28;20895;-73
2022/10/08 03:06:06;;;;;;;12.60;11.30;;;15.10;43.50;;;;;;10530107;28;20594;-73
2022/10/08 03:11:10;;;;;;;12.27;11.07;;;15.10;43.20;;;;;;10530524;28;20607;-72
2022/10/08 03:16:18;;;;;;;9.60;8.80;;;15.10;43.10;;;;;;10530001;28;20238;-73
2022/10/08 03:21:21;;;;;;;10.80;9.80;;;15.10;43.30;;;;;;10530191;28;20233;-73
2022/10/08 03:26:24;;;;;;;11.10;10.13;;;15.10;43.00;;;;;;10530157;28;20231;-71
2022/10/08 03:31:29;;;;;;;9.77;9.00;;;15.10;43.10;;;;;;10529497;28;20227;-73
2022/10/08 03:36:34;;;;;;;9.23;8.47;;;15.10;43.40;;;;;;10511597;28;20258;-73
2022/10/08 03:41:37;;;;;;;10.17;9.37;;;15.20;43.20;;;;;;10529704;28;20227;-72
2022/10/08 03:46:42;;;;;;;9.20;8.47;;;15.10;43.20;;;;;;10529398;28;20281;-73
2022/10/08 03:51:45;;;;;;;7.50;6.90;;;15.10;43.50;;;;;;10537765;28;20545;-73
2022/10/08 03:56:48;;;;;;;9.50;8.80;;;15.10;43.20;;;;;;10537360;28;20232;-73
2022/10/08 04:01:53;;;;;;;7.87;7.27;;;15.10;43.30;;;;;;10537326;28;20235;-72
2022/10/08 04:06:56;;;;;;;7.83;7.23;;;15.00;43.70;;;;;;10537255;28;20243;-72
2022/10/08 04:11:59;;;;;;;7.43;6.93;;;15.00;43.50;;;;;;10536780;28;20223;-73
2022/10/08 04:17:03;;;;;;;8.07;7.47;;;15.00;43.60;;;;;;10536790;28;20695;-72
2022/10/08 04:22:07;;;;;;;8.03;7.43;;;15.10;44.00;;;;;;10536705;28;20231;-73
2022/10/08 04:27:10;;;;;;;7.57;6.97;;;15.00;43.60;;;;;;10536381;28;20235;-73
2022/10/08 04:32:15;;;;;;;7.50;6.90;;;15.00;43.50;;;;;;10536487;28;20730;-73
2022/10/08 04:37:19;;;;;;;6.50;6.10;;;15.00;44.10;;;;;;10535638;28;20244;-73
2022/10/08 04:42:22;;;;;;;7.70;7.10;;;15.00;43.50;;;;;;10535874;28;20262;-73
2022/10/08 04:47:26;;;;;;;6.50;6.00;;;15.00;43.60;;;;;;10535721;28;20259;-72
2022/10/08 04:52:31;;;;;;;7.23;6.73;;;14.90;43.70;;;;;;10535445;28;20568;-73
2022/10/08 04:57:35;;;;;;;8.13;7.53;;;14.90;43.70;;;;;;10530340;28;21011;-73
2022/10/08 05:02:39;;;;;;;7.00;6.50;;;14.90;43.20;;;;;;10531357;28;20227;-72
2022/10/08 05:07:44;;;;;;;8.10;7.50;;;14.90;43.60;;;;;;10534638;28;20657;-73
2022/10/08 05:12:47;;;;;;;7.70;7.10;;;14.80;43.60;;;;;;10534236;28;20231;-73
2022/10/08 05:17:52;;;;;;;7.77;7.27;;;14.70;43.40;;;;;;10534236;28;20267;-73
2022/10/08 05:22:55;;;;;;;7.37;6.87;;;14.70;44.10;;;;;;10531951;28;20251;-72
2022/10/08 05:27:59;;;;;;;8.47;7.67;;;14.60;43.80;;;;;;10528384;28;20305;-72
2022/10/08 05:33:04;;;;;;;7.60;7.00;;;14.50;43.90;;;;;;10529093;28;20266;-72
2022/10/08 05:38:07;;;;;;;7.63;7.13;;;14.50;43.90;;;;;;10533114;28;20231;-72
2022/10/08 05:43:10;;;;;;;7.97;7.37;;;14.50;43.90;;;;;;10532830;28;20228;-73
2022/10/08 05:48:15;;;;;;;8.20;7.50;;;14.40;43.80;;;;;;10533230;28;20239;-72
2022/10/08 05:53:18;;;;;;;7.80;7.20;;;14.40;44.00;;;;;;10532822;28;20227;-72
2022/10/08 05:58:21;;;;;;;7.00;6.50;;;14.40;43.80;;;;;;10530959;28;20247;-72
2022/10/08 06:03:32;;;;;;;8.13;7.53;;;14.50;44.10;;;;;;10531450;28;20262;-72
2022/10/08 06:08:35;;;;;;;8.13;7.43;;;14.50;44.70;;;;;;10532053;28;20749;-72
2022/10/08 06:13:39;;;;;;;7.70;7.10;;;14.50;44.50;;;;;;10532100;28;20227;-72
2022/10/08 06:18:43;;;;;;;7.43;6.93;;;14.60;44.40;;;;;;10531500;28;20238;-72
2022/10/08 06:23:49;;;;;;;6.77;6.27;;;14.60;45.10;;;;;;10531620;28;20226;-73
2022/10/08 06:28:53;;;;;;;8.37;7.77;;;14.60;44.90;;;;;;10531225;28;20723;-73
2022/10/08 06:33:59;;;;;;;7.83;7.07;;;14.60;44.80;;;;;;10531416;28;20231;-72
2022/10/08 06:39:04;;;;;;;7.27;6.67;;;14.70;45.30;;;;;;10530722;28;20285;-73
2022/10/08 06:44:10;;;;;;;8.43;7.70;;;14.70;45.30;;;;;;10530757;28;20312;-73
2022/10/08 06:49:15;;;;;;;7.80;7.20;;;14.80;45.60;;;;;;10530628;28;20239;-72
2022/10/08 06:54:18;;;;;;;7.53;6.93;;;14.80;45.80;;;;;;10530635;28;20239;-73
2022/10/08 06:59:21;;;;;;;6.70;6.20;;;14.90;45.40;;;;;;10530426;28;20239;-72
2022/10/08 07:04:26;;;;;;;7.60;6.90;;;14.90;45.40;;;;;;10530637;28;20235;-73
2022/10/08 07:09:34;;;;;;;7.50;6.90;;;15.00;46.00;;;;;;10530163;28;20292;-73
2022/10/08 07:14:38;;;;;;;7.07;6.53;;;15.10;45.60;;;;;;10529163;28;20234;-72
2022/10/08 07:19:43;;;;;;;6.97;6.47;;;15.10;45.70;;;;;;10529762;28;20288;-73
2022/10/08 07:24:46;;;;;;;7.53;6.93;;;15.10;46.30;;;;;;10524436;28;20269;-73
2022/10/08 07:29:49;;;;;;;7.97;7.27;;;15.20;46.00;;;;;;10521130;28;20314;-73
2022/10/08 07:34:54;;;;;;;8.07;7.47;;;15.20;46.10;;;;;;10527346;28;20818;-72
2022/10/08 07:40:02;;;;;;;7.43;6.83;;;15.30;46.80;;;;;;10544989;28;20246;-71
2022/10/08 07:45:06;;;;;;;7.60;6.90;;;15.30;46.20;;;;;;10536904;28;20259;-71
2022/10/08 07:50:11;;;;;;;6.20;5.80;;;15.40;46.60;;;;;;10538135;28;20244;-72
2022/10/08 07:55:14;;;;;;;8.40;7.60;;;15.50;47.10;;;;;;10534935;28;20234;-72
2022/10/08 08:00:18;;;;;;;9.53;8.73;;;15.50;46.70;;;;;;10526143;28;20282;-73
2022/10/08 08:05:32;;;;;;;9.60;8.83;;;15.50;47.40;;;;;;10516598;28;20230;-72
2022/10/08 08:10:36;;;;;;;12.80;11.70;;;15.60;47.80;;;;;;10514629;28;20231;-74
2022/10/08 08:15:39;;;;;;;10.47;9.67;;;15.70;47.40;;;;;;10514992;28;20254;-74
2022/10/08 08:20:44;;;;;;;11.93;10.87;;;15.80;47.60;;;;;;10531542;28;20250;-73
2022/10/08 08:25:47;;;;;;;10.80;9.80;;;15.90;48.30;;;;;;10525923;28;20215;-76
2022/10/08 08:30:50;;;;;;;10.43;9.60;;;16.00;47.90;;;;;;10518745;28;20229;-74
2022/10/08 08:35:55;;;;;;;9.13;8.33;;;16.10;48.10;;;;;;10530409;28;20291;-75
2022/10/08 08:41:07;;;;;;;8.53;7.73;;;16.20;48.60;;;;;;10522717;28;20239;-74
2022/10/08 08:46:21;;;;;;;10.40;9.47;;;16.30;49.50;;;;;;10517268;28;20223;-73
2022/10/08 08:51:25;;;;;;;11.33;10.33;;;16.40;49.30;;;;;;10517196;28;20235;-73
2022/10/08 08:56:30;;;;;;;11.43;10.43;;;16.50;48.90;;;;;;10523505;28;20243;-73
2022/10/08 09:01:36;;;;;;;10.70;9.60;;;16.60;48.80;;;;;;10515676;28;20230;-72
2022/10/08 09:06:41;;;;;;;12.97;11.30;;;16.80;49.10;;;;;;10532735;28;20235;-73
2022/10/08 09:11:44;;;;;;;13.40;11.47;;;16.80;49.10;;;;;;10531096;28;20277;-72
2022/10/08 09:16:48;;;;;;;12.23;11.00;;;17.00;48.40;;;;;;10524339;28;20239;-71
2022/10/08 09:21:55;;;;;;;12.17;11.07;;;17.00;48.30;;;;;;10537475;23;20716;-72
2022/10/08 09:26:58;;;;;;;13.93;12.40;;;17.10;49.00;;;;;;10496267;28;20742;-72
2022/10/08 09:32:02;;;;;;;13.63;11.70;;;17.30;48.20;;;;;;10498591;28;20243;-72
2022/10/08 09:37:18;;;;;;;12.90;11.67;;;17.30;48.30;;;;;;10502275;28;20617;-72
2022/10/08 09:42:22;;;;;;;12.97;11.80;;;17.40;49.10;;;;;;10496532;28;20239;-72
2022/10/08 09:47:27;;;;;;;13.07;11.83;;;17.50;48.30;;;;;;10502506;28;20232;-72
2022/10/08 09:52:32;;;;;;;12.70;11.53;;;17.60;48.60;;;;;;10499295;28;20243;-72
2022/10/08 09:57:45;;;;;;;13.23;11.93;;;17.60;48.70;;;;;;10502929;28;20244;-72
2022/10/08 10:02:53;;;;;;;11.57;10.57;;;17.70;49.70;;;;;;10497962;28;20224;-72
2022/10/08 10:07:58;;;;;;;12.07;10.97;;;17.90;49.00;;;;;;10495230;28;20240;-72
2022/10/08 10:13:06;;;;;;;12.57;11.27;;;18.00;48.60;;;;;;10491851;28;20227;-72
2022/10/08 10:18:14;;;;;;;12.07;10.87;;;18.10;48.40;;;;;;10496254;28;20224;-72
2022/10/08 10:23:32;;;;;;;12.47;11.20;;;18.20;48.10;;;;;;10502086;28;20674;-72
2022/10/08 10:28:44;;;;;;;11.87;10.77;;;18.30;48.30;;;;;;10460250;28;20232;-72
2022/10/08 10:33:58;;;;;;;12.00;10.80;;;18.30;48.20;;;;;;10490018;28;20259;-72
2022/10/08 10:46:01;;;;;;;11.97;10.73;;;18.50;48.20;;;;;;10460016;28;20232;-72
2022/10/08 10:57:53;;;;;;;11.23;10.10;;;18.60;47.50;;;;;;10475020;28;20258;-72
2022/10/08 11:08:59;;;;;;;11.13;10.00;;;18.80;47.70;;;;;;10425543;28;20219;-72
2022/10/08 11:25:58;;;;;;;10.73;9.73;;;18.90;47.80;;;;;;10495877;28;20646;-71
2022/10/08 11:31:33;;;;;;;11.40;9.63;;;19.00;47.40;;;;;;10502371;28;20243;-72
2022/10/08 11:36:43;;;;;;;11.87;10.27;;;19.00;47.20;;;;;;10499863;28;20595;-72
2022/10/08 11:41:53;;;;;;;11.67;10.47;;;19.10;47.40;;;;;;10498841;28;20278;-72
2022/10/08 11:47:47;;;;;;;11.17;9.93;;;19.10;46.80;;;;;;10496153;28;20223;-72
2022/10/08 11:58:34;;;;;;;9.20;8.37;;;19.10;46.90;;;;;;4977651;26;20225;-74
2022/10/08 12:03:41;;;;;;;10.60;9.50;;;19.20;46.80;;;;;;10390572;28;20759;-75
2022/10/08 12:08:53;;;;;;;10.13;9.13;;;19.20;46.80;;;;;;10394676;28;20230;-75
2022/10/08 12:14:29;;;;;;;11.00;9.90;;;19.30;46.40;;;;;;10403197;28;20237;-74
2022/10/08 12:19:58;;;;;;;11.30;10.20;;;19.30;46.10;;;;;;10397769;28;20229;-75
2022/10/08 12:25:03;;;;;;;9.60;8.77;;;19.30;46.10;;;;;;10397134;28;20244;-74
2022/10/08 12:30:09;;;;;;;10.47;9.47;;;19.40;46.50;;;;;;10398074;28;20225;-75
2022/10/08 12:35:22;;;;;;;9.90;8.90;;;19.40;46.20;;;;;;10390764;28;20232;-75
2022/10/08 12:40:34;;;;;;;9.97;8.73;;;19.40;45.90;;;;;;10392809;28;20237;-75
2022/10/08 12:45:47;;;;;;;9.97;8.77;;;19.40;46.30;;;;;;10393081;28;20244;-76
2022/10/08 12:50:59;;;;;;;9.07;8.13;;;19.50;46.10;;;;;;10401787;28;20238;-76
2022/10/08 12:56:02;;;;;;;9.63;8.47;;;19.60;45.80;;;;;;10400618;28;20229;-75
2022/10/08 13:01:06;;;;;;;24.73;13.47;;;19.60;46.00;;;;;;10451933;28;20753;-76
2022/10/08 13:06:26;;;;;;;13.57;9.63;;;19.60;45.70;;;;;;10448217;28;20787;-76
2022/10/08 13:11:35;;;;;;;9.87;8.87;;;19.60;45.50;;;;;;10436752;28;20308;-76
2022/10/08 13:16:46;;;;;;;9.23;8.33;;;19.70;45.70;;;;;;10439403;28;20217;-76
2022/10/08 13:21:59;;;;;;;9.40;8.43;;;19.70;45.40;;;;;;10437525;28;20224;-76
2022/10/08 13:27:02;;;;;;;10.17;8.43;;;19.70;45.30;;;;;;10427609;28;20226;-76
2022/10/08 13:32:18;;;;;;;11.07;8.07;;;19.70;45.30;;;;;;10431174;28;20225;-76
2022/10/08 13:37:28;;;;;;;9.17;7.70;;;19.70;44.80;;;;;;10426525;28;20639;-76
2022/10/08 13:42:34;;;;;;;8.00;7.20;;;19.70;45.50;;;;;;10434988;28;20884;-76
2022/10/08 13:47:37;;;;;;;7.13;6.43;;;19.70;45.00;;;;;;10432910;28;20247;-75
2022/10/08 13:52:45;;;;;;;7.33;6.63;;;19.80;45.40;;;;;;10443417;28;20237;-76
2022/10/08 13:57:48;;;;;;;6.83;6.23;;;19.80;45.20;;;;;;10428833;28;20229;-76
2022/10/08 14:02:52;;;;;;;6.30;5.70;;;19.90;45.40;;;;;;10426537;28;20241;-76
2022/10/08 14:08:00;;;;;;;6.80;5.60;;;19.90;45.00;;;;;;10432656;28;20217;-76
2022/10/08 14:13:03;;;;;;;5.87;5.13;;;20.00;45.00;;;;;;10422832;28;20235;-76
2022/10/08 14:18:07;;;;;;;6.60;4.77;;;20.00;43.90;;;;;;10428365;28;20232;-76
2022/10/08 14:23:13;;;;;;;4.50;4.03;;;20.00;44.00;;;;;;10429056;28;20225;-75
2022/10/08 14:28:16;;;;;;;4.70;3.90;;;20.00;43.10;;;;;;10440240;28;20245;-76
2022/10/08 14:33:19;;;;;;;7.97;3.20;;;20.00;43.60;;;;;;10435229;28;20350;-76
2022/10/08 14:38:24;;;;;;;4.13;3.30;;;20.00;42.70;;;;;;10433572;28;20244;-76
2022/10/08 14:43:27;;;;;;;5.00;3.43;;;20.00;42.20;;;;;;10433492;28;20229;-76
2022/10/08 14:48:30;;;;;;;3.67;3.17;;;20.00;43.00;;;;;;10431377;28;20233;-76
2022/10/08 14:53:35;;;;;;;3.87;3.03;;;20.00;42.60;;;;;;10419131;28;20240;-76
2022/10/08 14:58:39;;;;;;;4.20;2.90;;;20.00;41.80;;;;;;10429318;28;20239;-77
2022/10/08 15:03:44;;;;;;;5.57;2.60;;;20.00;42.10;;;;;;10434101;28;20692;-76
2022/10/08 15:08:49;;;;;;;4.17;2.50;;;20.00;41.60;;;;;;10431557;28;20762;-76
2022/10/08 15:13:52;;;;;;;6.10;2.73;;;20.00;41.20;;;;;;10427032;28;20610;-76
2022/10/08 15:18:56;;;;;;;3.50;2.60;;;20.00;41.00;;;;;;10444467;28;20585;-79
2022/10/08 15:24:00;;;;;;;4.07;2.73;;;20.00;41.10;;;;;;10459698;28;20220;-79
2022/10/08 15:29:04;;;;;;;5.00;2.50;;;19.90;40.20;;;;;;10456063;28;20228;-78
2022/10/08 15:34:07;;;;;;;4.73;2.30;;;19.80;40.20;;;;;;10454721;28;20236;-79
2022/10/08 15:39:13;;;;;;;5.30;3.27;;;19.60;39.40;;;;;;10450390;28;20244;-79
2022/10/08 15:44:18;;;;;;;2.97;2.00;;;19.50;37.30;;;;;;10441800;28;20233;-79
2022/10/08 15:49:21;;;;;;;7.80;5.43;;;19.40;37.90;;;;;;10462633;28;21370;-79
2022/10/08 15:54:26;;;;;;;5.37;3.30;;;19.30;38.50;;;;;;10471746;28;20237;-79
2022/10/08 15:59:29;;;;;;;8.77;6.43;;;19.20;37.60;;;;;;10462494;28;20237;-79
2022/10/08 16:04:33;;;;;;;7.00;4.63;;;19.20;37.70;;;;;;10450238;28;20238;-79
2022/10/08 16:09:37;;;;;;;3.80;2.87;;;19.10;38.00;;;;;;10458779;28;20234;-79
2022/10/08 16:14:40;;;;;;;6.70;4.30;;;19.10;37.00;;;;;;10459918;28;20233;-78
2022/10/08 16:19:43;;;;;;;5.67;2.33;;;19.00;37.60;;;;;;10465217;28;20256;-79
2022/10/08 16:24:48;;;;;;;3.57;2.33;;;19.00;37.80;;;;;;10460382;28;20244;-79
2022/10/08 16:29:51;;;;;;;4.40;2.60;;;18.90;37.40;;;;;;10463234;28;20229;-79
2022/10/08 16:34:54;;;;;;;3.87;2.30;;;18.90;38.10;;;;;;10460606;28;20239;-79
2022/10/08 16:40:02;;;;;;;4.37;2.43;;;18.90;38.10;;;;;;10463906;28;20225;-78
2022/10/08 16:45:06;;;;;;;2.20;2.00;;;18.90;37.80;;;;;;10466372;28;20225;-78
2022/10/08 16:56:36;;;;;;;5.13;2.40;;;18.90;37.30;;;;;;10455983;28;20237;-78
2022/10/08 17:01:42;;;;;;;34.10;7.20;;;18.80;38.00;;;;;;10471401;28;20259;-77
2022/10/08 17:06:45;;;;;;;3.80;2.90;;;18.80;38.10;;;;;;10445009;28;20233;-77
2022/10/08 17:11:51;;;;;;;3.07;2.30;;;18.70;38.40;;;;;;10450649;28;20251;-77
2022/10/08 17:16:54;;;;;;;3.90;2.80;;;18.60;38.10;;;;;;10433182;28;20278;-77
2022/10/08 17:21:57;;;;;;;4.57;2.30;;;18.50;38.20;;;;;;10440562;28;20248;-76
2022/10/08 17:27:02;;;;;;;5.57;2.47;;;18.40;38.40;;;;;;10450410;28;20236;-77
2022/10/08 17:32:05;;;;;;;4.33;2.23;;;18.30;38.10;;;;;;10446576;28;20240;-77
2022/10/08 17:37:09;;;;;;;3.83;2.33;;;18.10;38.60;;;;;;10431770;28;20225;-77
2022/10/08 17:42:14;;;;;;;4.03;2.40;;;18.00;38.50;;;;;;10432671;28;20780;-77
2022/10/08 17:47:17;;;;;;;9.27;5.40;;;17.90;38.40;;;;;;10424999;28;20287;-77
2022/10/08 17:52:20;;;;;;;11.70;10.50;;;17.80;38.70;;;;;;10433924;28;20244;-76
2022/10/08 17:57:24;;;;;;;8.73;7.60;;;17.80;39.10;;;;;;10436559;28;20251;-77
2022/10/08 18:02:28;;;;;;;9.27;5.37;;;17.70;39.00;;;;;;10433714;28;20725;-77
2022/10/08 18:07:31;;;;;;;5.03;4.53;;;17.60;39.00;;;;;;10433660;28;20323;-76
2022/10/08 18:12:36;;;;;;;5.07;4.10;;;17.60;38.80;;;;;;10431437;28;20241;-76
2022/10/08 18:17:39;;;;;;;5.40;4.20;;;17.40;38.60;;;;;;10439676;28;20228;-76
2022/10/08 18:22:42;;;;;;;5.47;4.20;;;17.40;38.90;;;;;;10435191;28;20237;-76
2022/10/08 18:27:48;;;;;;;7.93;7.20;;;17.30;39.10;;;;;;10433657;28;20236;-76
2022/10/08 18:32:51;;;;;;;11.23;6.40;;;17.20;38.80;;;;;;10433673;28;20294;-76
2022/10/08 18:37:55;;;;;;;7.37;5.87;;;17.00;38.90;;;;;;10430419;28;20229;-76
2022/10/08 18:43:00;;;;;;;5.77;5.17;;;17.10;39.00;;;;;;10428154;28;20232;-77
2022/10/08 18:48:03;;;;;;;5.83;4.97;;;16.90;38.80;;;;;;10428555;28;20221;-76
2022/10/08 18:53:06;;;;;;;6.07;4.40;;;16.80;38.90;;;;;;10427728;28;20708;-76
2022/10/08 18:58:11;;;;;;;5.50;4.03;;;16.70;38.90;;;;;;10433977;28;20233;-76
2022/10/08 19:03:14;;;;;;;6.53;5.93;;;16.60;38.70;;;;;;10434413;28;20610;-77
2022/10/08 19:08:17;;;;;;;9.10;6.10;;;16.50;39.10;;;;;;10442500;28;20237;-76
2022/10/08 19:13:22;;;;;;;7.80;6.20;;;16.30;39.10;;;;;;10438485;28;20229;-76
2022/10/08 19:18:25;;;;;;;9.37;8.10;;;16.30;39.20;;;;;;10441687;28;20290;-76
2022/10/08 19:23:28;;;;;;;13.60;9.10;;;16.20;39.30;;;;;;10425520;28;20241;-76
2022/10/08 19:28:35;;;;;;;7.13;5.80;;;16.00;39.20;;;;;;10438554;28;20228;-77
2022/10/08 19:33:39;;;;;;;8.73;5.03;;;15.90;39.10;;;;;;10434717;28;20355;-77
2022/10/08 19:38:42;;;;;;;7.10;5.93;;;15.70;39.30;;;;;;10429913;28;20228;-77
2022/10/08 19:43:47;;;;;;;8.53;6.37;;;15.50;39.50;;;;;;10433636;28;20229;-75
2022/10/08 19:48:51;;;;;;;7.73;6.90;;;15.40;39.70;;;;;;10432319;28;20751;-76
2022/10/08 19:53:55;;;;;;;5.93;5.20;;;15.40;39.70;;;;;;10431807;28;20221;-77
2022/10/08 19:59:00;;;;;;;5.90;5.30;;;15.30;39.80;;;;;;10428331;28;20316;-76
2022/10/08 20:04:05;;;;;;;6.03;5.20;;;15.20;40.00;;;;;;10443060;28;20221;-76
2022/10/08 20:09:11;;;;;;;4.87;4.30;;;15.10;40.00;;;;;;10442006;28;21014;-76
2022/10/08 20:14:16;;;;;;;6.33;5.30;;;15.10;40.00;;;;;;10446947;28;20229;-76
2022/10/08 20:19:21;;;;;;;7.60;5.07;;;15.00;40.10;;;;;;10443677;28;20236;-76
2022/10/08 20:24:24;;;;;;;6.87;4.97;;;15.00;39.90;;;;;;10440370;28;20229;-76
2022/10/08 20:29:29;;;;;;;7.40;5.30;;;14.90;39.90;;;;;;10439190;28;20945;-76
2022/10/08 20:34:33;;;;;;;5.80;5.20;;;14.80;40.10;;;;;;10449962;28;20225;-75
2022/10/08 20:39:36;;;;;;;6.83;4.50;;;14.80;40.10;;;;;;10448756;28;20232;-75
2022/10/08 20:44:41;;;;;;;6.23;5.60;;;14.80;40.00;;;;;;10448551;28;20303;-76
2022/10/08 20:49:45;;;;;;;8.33;6.90;;;14.80;40.10;;;;;;10448875;28;20236;-76
2022/10/08 20:54:48;;;;;;;9.93;8.50;;;14.70;39.90;;;;;;10427393;28;20229;-75
2022/10/08 20:59:53;;;;;;;7.47;6.20;;;14.70;40.10;;;;;;10414558;28;20228;-75
2022/10/08 21:04:56;;;;;;;6.27;5.47;;;14.70;40.20;;;;;;10415080;28;20251;-75
2022/10/08 21:10:00;;;;;;;8.03;6.30;;;14.70;40.00;;;;;;10405089;28;20237;-76
2022/10/08 21:15:06;;;;;;;7.63;6.67;;;14.60;39.90;;;;;;10418082;28;20240;-76
2022/10/08 21:20:10;;;;;;;9.43;8.27;;;14.60;39.70;;;;;;10422097;28;20233;-75
2022/10/08 21:25:13;;;;;;;9.63;8.13;;;14.50;40.00;;;;;;10412069;28;20705;-75
2022/10/08 21:30:18;;;;;;;8.57;6.17;;;14.50;40.00;;;;;;10414070;28;20236;-75
2022/10/08 21:35:21;;;;;;;7.27;5.27;;;14.40;39.80;;;;;;10421442;28;20238;-76
2022/10/08 21:40:24;;;;;;;7.63;6.80;;;14.40;39.90;;;;;;10417514;28;20241;-76
2022/10/08 21:45:28;;;;;;;7.00;5.53;;;14.30;39.70;;;;;;10416857;28;20232;-75
2022/10/08 21:50:32;;;;;;;6.10;5.50;;;14.20;39.90;;;;;;10423316;28;20233;-76
2022/10/08 21:55:38;;;;;;;6.67;5.57;;;14.20;39.80;;;;;;10422033;28;20643;-76
2022/10/08 22:00:42;;;;;;;7.87;4.70;;;14.10;39.90;;;;;;10418006;28;20282;-75
2022/10/08 22:05:50;;;;;;;5.20;4.70;;;14.00;39.70;;;;;;10418126;28;20253;-76
2022/10/08 22:10:55;;;;;;;4.57;4.17;;;13.90;39.70;;;;;;10420464;28;20732;-75
2022/10/08 22:16:01;;;;;;;4.57;4.07;;;13.80;39.70;;;;;;10426223;28;20225;-76
2022/10/08 22:21:07;;;;;;;4.53;3.50;;;13.80;39.70;;;;;;10428064;28;20286;-76
2022/10/08 22:26:11;;;;;;;5.10;3.57;;;13.70;39.70;;;;;;10420002;28;20276;-76
2022/10/08 22:31:18;;;;;;;4.40;3.50;;;13.60;39.60;;;;;;10421994;28;20240;-75
2022/10/08 22:36:23;;;;;;;3.23;2.93;;;13.50;39.60;;;;;;10425451;28;20282;-75
2022/10/08 22:41:28;;;;;;;4.23;3.10;;;13.50;39.80;;;;;;10424347;28;20240;-75
2022/10/08 22:46:35;;;;;;;4.43;3.50;;;13.40;39.80;;;;;;10424930;28;20847;-76
2022/10/08 22:51:39;;;;;;;4.47;3.63;;;13.40;39.60;;;;;;10428986;28;20239;-76
2022/10/08 22:56:43;;;;;;;4.97;3.90;;;13.30;39.50;;;;;;10439835;28;20981;-74
2022/10/08 23:01:49;;;;;;;4.47;3.97;;;13.20;39.40;;;;;;10453207;28;20739;-74
2022/10/08 23:06:52;;;;;;;3.87;3.47;;;13.10;39.70;;;;;;10445224;28;20916;-74
2022/10/08 23:11:55;;;;;;;7.47;4.87;;;13.00;39.70;;;;;;10445157;28;20221;-74
2022/10/08 23:16:59;;;;;;;5.53;4.27;;;12.90;39.80;;;;;;10448063;28;20228;-74
2022/10/08 23:22:03;;;;;;;4.73;4.03;;;12.90;39.90;;;;;;10453068;28;20225;-74
2022/10/08 23:27:06;;;;;;;4.00;3.70;;;12.80;39.80;;;;;;10452642;28;20221;-74
2022/10/08 23:32:13;;;;;;;3.43;3.17;;;12.80;40.00;;;;;;10447859;28;20260;-74
2022/10/08 23:37:16;;;;;;;5.67;3.73;;;12.80;40.10;;;;;;10454553;28;20240;-74
2022/10/08 23:42:19;;;;;;;4.07;3.67;;;12.80;40.00;;;;;;10450217;28;20232;-74
2022/10/08 23:47:24;;;;;;;4.70;4.00;;;12.70;39.90;;;;;;10464260;28;20244;-74
2022/10/08 23:52:27;;;;;;;3.80;3.30;;;12.70;39.90;;;;;;10461396;28;20254;-73
2022/10/08 23:57:30;;;;;;;4.83;3.80;;;12.70;39.80;;;;;;10446388;28;20225;-74
